createdAt,value
2018-04-25T00:00:48.682Z,0.00
2018-04-25T00:01:48.746Z,0.00
2018-04-25T00:02:48.802Z,0.00
2018-04-25T00:03:48.867Z,0.00
2018-04-25T00:04:48.930Z,0.00
2018-04-25T00:05:49.002Z,0.00
2018-04-25T00:06:49.066Z,0.00
2018-04-25T00:07:49.128Z,0.00
2018-04-25T00:08:49.187Z,0.00
2018-04-25T00:09:49.255Z,0.00
2018-04-25T00:10:49.330Z,0.00
2018-04-25T00:11:49.382Z,0.00
2018-04-25T00:12:49.447Z,0.00
2018-04-25T00:13:49.511Z,0.00
2018-04-25T00:14:49.579Z,0.00
2018-04-25T00:15:49.647Z,0.00
2018-04-25T00:16:49.711Z,0.00
2018-04-25T00:17:49.767Z,0.00
2018-04-25T00:18:49.831Z,0.00
2018-04-25T00:19:49.895Z,0.00
2018-04-25T00:20:49.963Z,0.00
2018-04-25T00:21:50.032Z,0.00
2018-04-25T00:22:50.087Z,0.00
2018-04-25T00:23:50.151Z,0.00
2018-04-25T00:24:50.216Z,0.00
2018-04-25T00:25:50.291Z,0.00
2018-04-25T00:26:50.359Z,0.00
2018-04-25T00:27:50.416Z,0.00
2018-04-25T00:28:50.471Z,0.00
2018-04-25T00:29:50.535Z,0.00
2018-04-25T00:30:50.603Z,0.00
2018-04-25T00:31:50.671Z,0.00
2018-04-25T00:32:50.736Z,0.00
2018-04-25T00:33:50.796Z,0.00
2018-04-25T00:34:50.860Z,0.00
2018-04-25T00:35:50.924Z,0.00
2018-04-25T00:36:50.991Z,0.00
2018-04-25T00:37:51.056Z,0.00
2018-04-25T00:38:51.116Z,0.00
2018-04-25T00:39:51.180Z,0.00
2018-04-25T00:40:51.244Z,0.00
2018-04-25T00:41:51.308Z,0.00
2018-04-25T00:42:51.524Z,0.00
2018-04-25T00:43:51.437Z,0.00
2018-04-25T00:44:51.500Z,0.00
2018-04-25T00:45:51.564Z,0.00
2018-04-25T00:46:51.628Z,0.00
2018-04-25T00:47:51.700Z,0.00
2018-04-25T00:48:51.760Z,0.00
2018-04-25T00:49:51.824Z,0.00
2018-04-25T00:50:51.887Z,0.00
2018-04-25T00:51:51.944Z,0.00
2018-04-25T00:52:52.021Z,0.00
2018-04-25T00:53:52.084Z,0.00
2018-04-25T00:54:52.141Z,0.00
2018-04-25T00:55:52.205Z,0.00
2018-04-25T00:56:52.269Z,0.00
2018-04-25T00:57:52.349Z,0.00
2018-04-25T00:58:52.396Z,0.00
2018-04-25T00:59:52.461Z,0.00
2018-04-25T01:00:52.524Z,0.00
2018-04-25T01:01:52.601Z,0.00
2018-04-25T01:02:52.661Z,0.00
2018-04-25T01:03:52.731Z,0.00
2018-04-25T01:04:52.780Z,0.00
2018-04-25T01:05:52.845Z,0.00
2018-04-25T01:06:52.908Z,0.00
2018-04-25T01:07:52.981Z,0.00
2018-04-25T01:08:53.045Z,0.00
2018-04-25T01:09:53.101Z,0.00
2018-04-25T01:10:53.164Z,0.00
2018-04-25T01:11:53.353Z,0.00
2018-04-25T01:12:53.308Z,0.00
2018-04-25T01:13:53.357Z,0.00
2018-04-25T01:14:53.421Z,0.00
2018-04-25T01:15:53.485Z,0.00
2018-04-25T01:16:53.548Z,0.00
2018-04-25T01:17:53.621Z,0.00
2018-04-25T01:18:53.690Z,0.00
2018-04-25T01:19:53.749Z,0.00
2018-04-25T01:20:53.805Z,0.00
2018-04-25T01:21:53.869Z,0.00
2018-04-25T01:22:53.941Z,0.00
2018-04-25T01:23:54.005Z,0.00
2018-04-25T01:24:54.061Z,0.00
2018-04-25T01:25:54.125Z,0.00
2018-04-25T01:26:54.189Z,0.00
2018-04-25T01:27:54.277Z,0.00
2018-04-25T01:28:54.321Z,0.00
2018-04-25T01:29:54.382Z,0.00
2018-04-25T01:30:54.447Z,0.00
2018-04-25T01:31:54.514Z,0.00
2018-04-25T01:32:54.578Z,0.00
2018-04-25T01:33:54.649Z,0.00
2018-04-25T01:34:54.709Z,0.00
2018-04-25T01:35:54.778Z,0.00
2018-04-25T01:36:54.829Z,0.00
2018-04-25T01:37:54.906Z,0.00
2018-04-25T01:38:54.969Z,0.00
2018-04-25T01:39:55.030Z,0.00
2018-04-25T01:40:55.086Z,0.00
2018-04-25T01:41:55.156Z,0.00
2018-04-25T01:42:55.361Z,0.00
2018-04-25T01:43:55.281Z,0.00
2018-04-25T01:44:55.345Z,0.00
2018-04-25T01:45:55.410Z,0.00
2018-04-25T01:46:55.474Z,0.00
2018-04-25T01:47:55.542Z,0.00
2018-04-25T01:48:55.606Z,0.00
2018-04-25T01:49:55.666Z,0.00
2018-04-25T01:50:55.730Z,0.00
2018-04-25T01:51:55.794Z,0.00
2018-04-25T01:52:55.867Z,0.00
2018-04-25T01:53:55.926Z,0.00
2018-04-25T01:54:55.986Z,0.00
2018-04-25T01:55:56.074Z,0.00
2018-04-25T01:56:56.114Z,0.00
2018-04-25T01:57:56.330Z,0.00
2018-04-25T01:58:56.242Z,0.00
2018-04-25T01:59:56.306Z,0.00
2018-04-25T02:00:56.370Z,0.00
2018-04-25T02:01:56.436Z,0.00
2018-04-25T02:02:56.506Z,0.00
2018-04-25T02:03:56.566Z,0.00
2018-04-25T02:04:56.627Z,0.00
2018-04-25T02:05:56.690Z,0.00
2018-04-25T02:06:56.754Z,0.00
2018-04-25T02:07:56.826Z,0.00
2018-04-25T02:08:56.891Z,0.00
2018-04-25T02:09:56.947Z,0.00
2018-04-25T02:10:57.011Z,0.00
2018-04-25T02:11:57.075Z,0.00
2018-04-25T02:12:57.155Z,0.00
2018-04-25T02:13:57.216Z,0.00
2018-04-25T02:14:57.266Z,0.00
2018-04-25T02:15:57.330Z,0.00
2018-04-25T02:16:57.395Z,0.00
2018-04-25T02:17:57.467Z,0.00
2018-04-25T02:18:57.539Z,0.00
2018-04-25T02:19:57.590Z,0.00
2018-04-25T02:20:57.653Z,0.00
2018-04-25T02:21:57.716Z,0.00
2018-04-25T02:22:57.787Z,0.00
2018-04-25T02:23:57.859Z,0.00
2018-04-25T02:24:57.907Z,0.00
2018-04-25T02:25:57.971Z,0.00
2018-04-25T02:26:58.035Z,0.00
2018-04-25T02:27:58.403Z,0.00
2018-04-25T02:28:58.164Z,0.00
2018-04-25T02:29:58.229Z,0.00
2018-04-25T02:30:58.295Z,0.00
2018-04-25T02:31:58.359Z,0.00
2018-04-25T02:32:58.427Z,0.00
2018-04-25T02:33:58.491Z,0.00
2018-04-25T02:34:58.551Z,0.00
2018-04-25T02:35:58.613Z,0.00
2018-04-25T02:36:58.679Z,0.00
2018-04-25T02:37:58.752Z,0.00
2018-04-25T02:38:58.811Z,0.00
2018-04-25T02:39:58.872Z,0.00
2018-04-25T02:40:58.939Z,0.00
2018-04-25T02:41:59.003Z,0.00
2018-04-25T02:42:59.089Z,0.00
2018-04-25T02:43:59.129Z,0.00
2018-04-25T02:44:59.192Z,0.00
2018-04-25T02:45:59.256Z,0.00
2018-04-25T02:46:59.320Z,0.00
2018-04-25T02:47:59.396Z,0.00
2018-04-25T02:48:59.456Z,0.00
2018-04-25T02:49:59.521Z,0.00
2018-04-25T02:50:59.577Z,0.00
2018-04-25T02:51:59.636Z,0.00
2018-04-25T02:52:59.713Z,0.00
2018-04-25T02:53:59.777Z,0.00
2018-04-25T02:54:59.837Z,0.00
2018-04-25T02:55:59.901Z,0.00
2018-04-25T02:56:59.964Z,0.00
2018-04-25T02:58:00.037Z,0.00
2018-04-25T02:59:00.118Z,0.00
2018-04-25T03:00:00.163Z,0.00
2018-04-25T03:01:00.223Z,0.00
2018-04-25T03:02:00.281Z,0.00
2018-04-25T03:03:00.390Z,0.00
2018-04-25T03:04:00.424Z,0.00
2018-04-25T03:05:00.475Z,0.00
2018-04-25T03:06:00.545Z,0.00
2018-04-25T03:07:00.606Z,0.00
2018-04-25T03:08:00.677Z,0.00
2018-04-25T03:09:00.741Z,0.00
2018-04-25T03:10:00.794Z,0.00
2018-04-25T03:11:00.861Z,0.00
2018-04-25T03:12:00.929Z,0.00
2018-04-25T03:13:00.998Z,0.00
2018-04-25T03:14:01.063Z,0.00
2018-04-25T03:15:01.127Z,0.00
2018-04-25T03:16:01.187Z,0.00
2018-04-25T03:17:01.246Z,0.00
2018-04-25T03:18:01.310Z,0.00
2018-04-25T03:19:01.682Z,0.00
2018-04-25T03:20:01.442Z,0.00
2018-04-25T03:21:01.509Z,0.00
2018-04-25T03:22:01.570Z,0.00
2018-04-25T03:23:01.638Z,0.00
2018-04-25T03:24:01.706Z,0.00
2018-04-25T03:25:01.770Z,0.00
2018-04-25T03:26:01.834Z,0.00
2018-04-25T03:27:01.894Z,0.00
2018-04-25T03:28:01.954Z,0.00
2018-04-25T03:29:02.026Z,0.00
2018-04-25T03:30:02.091Z,0.00
2018-04-25T03:31:02.149Z,0.00
2018-04-25T03:32:02.206Z,0.00
2018-04-25T03:33:02.274Z,0.00
2018-04-25T03:34:02.351Z,0.00
2018-04-25T03:35:02.423Z,0.00
2018-04-25T03:36:02.471Z,0.00
2018-04-25T03:37:02.535Z,0.00
2018-04-25T03:38:02.599Z,0.00
2018-04-25T03:39:02.667Z,0.00
2018-04-25T03:40:02.741Z,0.00
2018-04-25T03:41:02.848Z,0.00
2018-04-25T03:42:02.855Z,0.00
2018-04-25T03:43:02.919Z,0.00
2018-04-25T03:44:02.991Z,0.00
2018-04-25T03:45:03.055Z,0.00
2018-04-25T03:46:03.107Z,0.00
2018-04-25T03:47:03.175Z,0.00
2018-04-25T03:48:03.235Z,0.00
2018-04-25T03:49:03.307Z,0.00
2018-04-25T03:50:03.384Z,0.00
2018-04-25T03:51:03.435Z,0.00
2018-04-25T03:52:03.495Z,0.00
2018-04-25T03:53:03.559Z,0.00
2018-04-25T03:54:03.627Z,0.00
2018-04-25T03:55:03.707Z,0.00
2018-04-25T03:56:03.763Z,0.00
2018-04-25T03:57:03.819Z,0.00
2018-04-25T03:58:03.883Z,0.00
2018-04-25T03:59:03.948Z,0.00
2018-04-25T04:00:04.019Z,0.00
2018-04-25T04:01:04.083Z,0.00
2018-04-25T04:02:04.158Z,0.00
2018-04-25T04:03:04.203Z,0.00
2018-04-25T04:04:04.267Z,0.00
2018-04-25T04:05:04.343Z,0.00
2018-04-25T04:06:04.403Z,0.00
2018-04-25T04:07:04.464Z,0.00
2018-04-25T04:08:04.523Z,0.00
2018-04-25T04:09:04.587Z,0.00
2018-04-25T04:10:04.659Z,0.00
2018-04-25T04:11:04.739Z,0.00
2018-04-25T04:12:04.780Z,0.00
2018-04-25T04:13:04.880Z,0.00
2018-04-25T04:14:04.912Z,0.00
2018-04-25T04:15:05.356Z,0.00
2018-04-25T04:16:05.044Z,0.00
2018-04-25T04:17:05.107Z,0.00
2018-04-25T04:18:05.168Z,0.00
2018-04-25T04:19:05.232Z,0.00
2018-04-25T04:20:05.296Z,0.00
2018-04-25T04:21:05.659Z,0.00
2018-04-25T04:22:05.424Z,0.00
2018-04-25T04:23:05.487Z,0.00
2018-04-25T04:24:05.556Z,0.00
2018-04-25T04:25:05.620Z,0.00
2018-04-25T04:26:05.687Z,0.00
2018-04-25T04:27:05.761Z,0.00
2018-04-25T04:28:05.805Z,0.00
2018-04-25T04:29:05.875Z,0.00
2018-04-25T04:30:05.936Z,0.00
2018-04-25T04:31:06.008Z,0.00
2018-04-25T04:32:06.072Z,0.00
2018-04-25T04:33:06.882Z,0.00
2018-04-25T04:34:06.204Z,5.63
2018-04-25T04:35:06.257Z,5.63
2018-04-25T04:36:07.914Z,5.63
2018-04-25T04:37:06.389Z,5.63
2018-04-25T04:38:06.505Z,11.25
2018-04-25T04:39:06.515Z,5.63
2018-04-25T04:40:06.576Z,5.63
2018-04-25T04:41:06.663Z,11.25
2018-04-25T04:42:06.730Z,11.25
2018-04-25T04:43:06.818Z,11.25
2018-04-25T04:44:06.845Z,11.25
2018-04-25T04:45:06.893Z,11.25
2018-04-25T04:46:06.965Z,11.25
2018-04-25T04:47:07.038Z,16.88
2018-04-25T04:48:07.101Z,11.25
2018-04-25T04:49:07.177Z,11.25
2018-04-25T04:50:07.217Z,11.25
2018-04-25T04:51:07.285Z,5.63
2018-04-25T04:52:07.362Z,11.25
2018-04-25T04:53:07.497Z,11.25
2018-04-25T04:54:07.478Z,11.25
2018-04-25T04:55:07.534Z,11.25
2018-04-25T04:56:07.622Z,16.88
2018-04-25T04:57:07.674Z,16.88
2018-04-25T04:58:07.786Z,11.25
2018-04-25T04:59:07.806Z,11.25
2018-04-25T05:00:07.854Z,11.25
2018-04-25T05:01:07.926Z,11.25
2018-04-25T05:02:08.010Z,5.63
2018-04-25T05:03:08.082Z,5.63
2018-04-25T05:04:09.250Z,5.63
2018-04-25T05:05:08.181Z,11.25
2018-04-25T05:06:08.248Z,11.25
2018-04-25T05:07:08.342Z,11.25
2018-04-25T05:08:08.385Z,11.25
2018-04-25T05:09:08.450Z,11.25
2018-04-25T05:10:08.498Z,11.25
2018-04-25T05:11:08.559Z,11.25
2018-04-25T05:12:08.642Z,16.88
2018-04-25T05:13:08.849Z,16.88
2018-04-25T05:14:08.754Z,16.88
2018-04-25T05:15:08.819Z,16.88
2018-04-25T05:16:08.882Z,16.88
2018-04-25T05:17:08.951Z,11.25
2018-04-25T05:18:09.019Z,11.25
2018-04-25T05:19:09.075Z,11.25
2018-04-25T05:20:09.139Z,11.25
2018-04-25T05:21:09.203Z,11.25
2018-04-25T05:22:09.266Z,16.88
2018-04-25T05:23:09.351Z,16.88
2018-04-25T05:24:09.395Z,22.50
2018-04-25T05:25:09.456Z,22.50
2018-04-25T05:26:09.523Z,22.50
2018-04-25T05:27:09.587Z,22.50
2018-04-25T05:28:09.659Z,22.50
2018-04-25T05:29:09.718Z,22.50
2018-04-25T05:30:09.775Z,28.13
2018-04-25T05:31:09.839Z,33.75
2018-04-25T05:32:09.982Z,39.38
2018-04-25T05:33:09.975Z,39.38
2018-04-25T05:34:10.042Z,39.38
2018-04-25T05:35:10.099Z,39.38
2018-04-25T05:36:10.160Z,33.75
2018-04-25T05:37:10.227Z,33.75
2018-04-25T05:38:10.287Z,33.75
2018-04-25T05:39:10.523Z,28.13
2018-04-25T05:40:10.415Z,33.75
2018-04-25T05:41:10.479Z,39.38
2018-04-25T05:42:10.544Z,39.38
2018-04-25T05:43:10.607Z,39.38
2018-04-25T05:44:10.679Z,28.13
2018-04-25T05:45:10.743Z,28.13
2018-04-25T05:46:10.799Z,28.13
2018-04-25T05:47:10.863Z,28.13
2018-04-25T05:48:10.928Z,22.50
2018-04-25T05:49:10.999Z,22.50
2018-04-25T05:50:11.072Z,22.50
2018-04-25T05:51:11.119Z,22.50
2018-04-25T05:52:11.184Z,16.88
2018-04-25T05:53:11.247Z,22.50
2018-04-25T05:54:11.311Z,28.13
2018-04-25T05:55:11.506Z,28.13
2018-04-25T05:56:11.439Z,28.13
2018-04-25T05:57:11.504Z,28.13
2018-04-25T05:58:11.571Z,39.38
2018-04-25T05:59:11.631Z,39.38
2018-04-25T06:00:11.699Z,39.38
2018-04-25T06:01:11.763Z,33.75
2018-04-25T06:02:11.819Z,33.75
2018-04-25T06:03:11.889Z,45.00
2018-04-25T06:04:11.951Z,50.63
2018-04-25T06:05:12.028Z,50.63
2018-04-25T06:06:12.083Z,45.00
2018-04-25T06:07:12.191Z,50.63
2018-04-25T06:08:12.207Z,50.63
2018-04-25T06:09:12.267Z,73.13
2018-04-25T06:10:12.340Z,73.13
2018-04-25T06:11:12.409Z,61.88
2018-04-25T06:12:12.460Z,50.63
2018-04-25T06:13:12.524Z,39.38
2018-04-25T06:14:12.588Z,39.38
2018-04-25T06:15:12.656Z,39.38
2018-04-25T06:16:12.720Z,28.13
2018-04-25T06:17:12.781Z,16.88
2018-04-25T06:18:12.841Z,16.88
2018-04-25T06:19:12.905Z,22.50
2018-04-25T06:20:13.003Z,45.00
2018-04-25T06:21:13.064Z,56.25
2018-04-25T06:22:13.097Z,78.75
2018-04-25T06:23:13.162Z,84.38
2018-04-25T06:24:13.226Z,90.00
2018-04-25T06:25:13.409Z,90.00
2018-04-25T06:26:13.366Z,90.00
2018-04-25T06:27:13.418Z,84.38
2018-04-25T06:28:13.488Z,78.75
2018-04-25T06:29:13.546Z,73.13
2018-04-25T06:30:13.613Z,78.75
2018-04-25T06:31:13.697Z,73.13
2018-04-25T06:32:13.737Z,50.63
2018-04-25T06:33:13.802Z,50.63
2018-04-25T06:34:13.862Z,61.88
2018-04-25T06:35:13.934Z,50.63
2018-04-25T06:36:13.999Z,56.25
2018-04-25T06:37:14.054Z,56.25
2018-04-25T06:38:14.118Z,50.63
2018-04-25T06:39:14.182Z,50.63
2018-04-25T06:40:14.250Z,50.63
2018-04-25T06:41:14.418Z,56.25
2018-04-25T06:42:14.374Z,50.63
2018-04-25T06:43:14.442Z,50.63
2018-04-25T06:44:14.502Z,45.00
2018-04-25T06:45:14.563Z,39.38
2018-04-25T06:46:14.634Z,45.00
2018-04-25T06:47:14.704Z,56.25
2018-04-25T06:48:14.757Z,67.50
2018-04-25T06:49:14.821Z,73.13
2018-04-25T06:50:14.885Z,67.50
2018-04-25T06:51:14.954Z,56.25
2018-04-25T06:52:15.018Z,50.63
2018-04-25T06:53:15.074Z,56.25
2018-04-25T06:54:15.138Z,73.13
2018-04-25T06:55:15.201Z,78.75
2018-04-25T06:56:15.265Z,90.00
2018-04-25T06:57:15.354Z,90.00
2018-04-25T06:58:15.391Z,95.63
2018-04-25T06:59:15.454Z,106.88
2018-04-25T07:00:15.518Z,112.50
2018-04-25T07:01:15.582Z,95.63
2018-04-25T07:02:15.662Z,67.50
2018-04-25T07:03:15.713Z,50.63
2018-04-25T07:04:15.773Z,56.25
2018-04-25T07:05:15.834Z,67.50
2018-04-25T07:06:15.898Z,95.63
2018-04-25T07:07:15.977Z,67.50
2018-04-25T07:08:16.095Z,129.38
2018-04-25T07:09:16.090Z,151.88
2018-04-25T07:10:16.154Z,168.75
2018-04-25T07:11:16.222Z,163.13
2018-04-25T07:12:16.283Z,129.38
2018-04-25T07:13:16.509Z,95.63
2018-04-25T07:14:16.406Z,78.75
2018-04-25T07:15:16.470Z,73.13
2018-04-25T07:16:16.535Z,84.38
2018-04-25T07:17:16.594Z,101.25
2018-04-25T07:18:16.666Z,90.00
2018-04-25T07:19:16.731Z,73.13
2018-04-25T07:20:16.787Z,56.25
2018-04-25T07:21:16.851Z,56.25
2018-04-25T07:22:16.915Z,56.25
2018-04-25T07:23:17.049Z,56.25
2018-04-25T07:24:17.047Z,61.88
2018-04-25T07:25:17.103Z,61.88
2018-04-25T07:26:17.167Z,61.88
2018-04-25T07:27:17.231Z,90.00
2018-04-25T07:28:17.302Z,118.13
2018-04-25T07:29:17.380Z,140.63
2018-04-25T07:30:17.424Z,151.88
2018-04-25T07:31:17.487Z,163.13
2018-04-25T07:32:17.548Z,202.50
2018-04-25T07:33:17.611Z,264.38
2018-04-25T07:34:17.686Z,326.25
2018-04-25T07:35:17.755Z,399.38
2018-04-25T07:36:17.804Z,466.88
2018-04-25T07:37:17.869Z,410.63
2018-04-25T07:38:17.936Z,472.50
2018-04-25T07:39:18.004Z,466.88
2018-04-25T07:40:18.068Z,388.13
2018-04-25T07:41:18.124Z,326.25
2018-04-25T07:42:18.192Z,309.38
2018-04-25T07:43:18.257Z,331.88
2018-04-25T07:44:18.492Z,393.75
2018-04-25T07:45:18.382Z,601.88
2018-04-25T07:46:18.445Z,613.13
2018-04-25T07:47:18.509Z,855.00
2018-04-25T07:48:18.576Z,731.25
2018-04-25T07:49:18.649Z,675.00
2018-04-25T07:50:18.713Z,568.13
2018-04-25T07:51:18.773Z,455.63
2018-04-25T07:52:18.871Z,489.38
2018-04-25T07:53:18.910Z,405.00
2018-04-25T07:54:18.980Z,500.63
2018-04-25T07:55:19.040Z,326.25
2018-04-25T07:56:19.100Z,309.38
2018-04-25T07:57:19.165Z,286.88
2018-04-25T07:58:19.234Z,298.13
2018-04-25T07:59:19.300Z,714.38
2018-04-25T08:00:19.620Z,427.50
2018-04-25T08:01:19.424Z,1035.00
2018-04-25T08:02:19.501Z,1057.50
2018-04-25T08:03:19.565Z,725.63
2018-04-25T08:04:19.628Z,388.13
2018-04-25T08:05:19.705Z,281.25
2018-04-25T08:06:19.769Z,281.25
2018-04-25T08:07:19.833Z,320.63
2018-04-25T08:08:19.897Z,348.75
2018-04-25T08:09:19.969Z,270.00
2018-04-25T08:10:20.037Z,343.13
2018-04-25T08:11:20.105Z,286.88
2018-04-25T08:12:20.231Z,258.75
2018-04-25T08:13:20.233Z,247.50
2018-04-25T08:14:20.297Z,264.38
2018-04-25T08:15:20.529Z,286.88
2018-04-25T08:16:20.433Z,326.25
2018-04-25T08:17:20.497Z,1676.25
2018-04-25T08:18:20.565Z,641.25
2018-04-25T08:19:20.633Z,1884.38
2018-04-25T08:20:20.705Z,1068.75
2018-04-25T08:21:20.769Z,1603.13
2018-04-25T08:22:20.833Z,1839.38
2018-04-25T08:23:20.905Z,1265.63
2018-04-25T08:24:20.972Z,540.00
2018-04-25T08:25:21.041Z,1738.13
2018-04-25T08:26:21.121Z,1226.25
2018-04-25T08:27:21.173Z,641.25
2018-04-25T08:28:21.241Z,1445.63
2018-04-25T08:29:21.309Z,748.13
2018-04-25T08:30:21.382Z,1687.50
2018-04-25T08:31:21.462Z,787.50
2018-04-25T08:32:21.573Z,1524.38
2018-04-25T08:33:21.590Z,421.88
2018-04-25T08:34:21.712Z,1451.25
2018-04-25T08:35:21.778Z,1350.00
2018-04-25T08:36:21.810Z,1321.88
2018-04-25T08:37:21.882Z,1220.63
2018-04-25T08:38:21.938Z,1186.88
2018-04-25T08:39:22.014Z,1096.88
2018-04-25T08:40:22.078Z,320.63
2018-04-25T08:41:22.460Z,292.50
2018-04-25T08:42:22.222Z,236.25
2018-04-25T08:43:22.291Z,180.00
2018-04-25T08:44:22.369Z,202.50
2018-04-25T08:45:22.431Z,225.00
2018-04-25T08:46:22.521Z,225.00
2018-04-25T08:47:22.578Z,208.13
2018-04-25T08:48:22.645Z,180.00
2018-04-25T08:49:22.707Z,157.50
2018-04-25T08:50:22.778Z,208.13
2018-04-25T08:51:22.855Z,253.13
2018-04-25T08:52:22.931Z,883.13
2018-04-25T08:53:22.983Z,1051.88
2018-04-25T08:54:23.055Z,1040.63
2018-04-25T08:55:23.116Z,1040.63
2018-04-25T08:56:23.215Z,1040.63
2018-04-25T08:57:23.267Z,1035.00
2018-04-25T08:58:23.323Z,1046.25
2018-04-25T08:59:23.399Z,1040.63
2018-04-25T09:00:23.471Z,1057.50
2018-04-25T09:01:23.539Z,1057.50
2018-04-25T09:02:23.607Z,1096.88
2018-04-25T09:03:23.683Z,1068.75
2018-04-25T09:04:23.743Z,416.25
2018-04-25T09:05:23.811Z,433.13
2018-04-25T09:06:23.895Z,1153.13
2018-04-25T09:07:23.961Z,1068.75
2018-04-25T09:08:24.023Z,343.13
2018-04-25T09:09:24.099Z,247.50
2018-04-25T09:10:24.163Z,168.75
2018-04-25T09:11:24.251Z,163.13
2018-04-25T09:12:24.307Z,163.13
2018-04-25T09:13:24.379Z,208.13
2018-04-25T09:14:24.443Z,669.38
2018-04-25T09:15:24.517Z,663.75
2018-04-25T09:16:24.591Z,630.00
2018-04-25T09:17:24.663Z,613.13
2018-04-25T09:18:24.723Z,770.63
2018-04-25T09:19:24.791Z,360.00
2018-04-25T09:20:24.876Z,731.25
2018-04-25T09:21:24.935Z,438.75
2018-04-25T09:22:25.007Z,348.75
2018-04-25T09:23:25.068Z,320.63
2018-04-25T09:24:25.139Z,309.38
2018-04-25T09:25:25.207Z,315.00
2018-04-25T09:26:25.291Z,320.63
2018-04-25T09:27:25.347Z,534.38
2018-04-25T09:28:25.415Z,286.88
2018-04-25T09:29:25.488Z,219.38
2018-04-25T09:30:25.555Z,213.75
2018-04-25T09:31:25.627Z,174.38
2018-04-25T09:32:25.699Z,208.13
2018-04-25T09:33:25.756Z,275.63
2018-04-25T09:34:25.909Z,292.50
2018-04-25T09:35:25.891Z,253.13
2018-04-25T09:36:25.971Z,180.00
2018-04-25T09:37:26.036Z,180.00
2018-04-25T09:38:26.095Z,196.88
2018-04-25T09:39:26.168Z,196.88
2018-04-25T09:40:26.230Z,168.75
2018-04-25T09:41:26.603Z,180.00
2018-04-25T09:42:26.373Z,275.63
2018-04-25T09:43:26.434Z,264.38
2018-04-25T09:44:26.500Z,225.00
2018-04-25T09:45:26.568Z,208.13
2018-04-25T09:46:26.643Z,196.88
2018-04-25T09:47:26.712Z,270.00
2018-04-25T09:48:26.769Z,281.25
2018-04-25T09:49:26.842Z,264.38
2018-04-25T09:50:26.900Z,258.75
2018-04-25T09:51:26.976Z,241.88
2018-04-25T09:52:27.041Z,230.63
2018-04-25T09:53:27.104Z,270.00
2018-04-25T09:54:27.169Z,292.50
2018-04-25T09:55:27.237Z,478.13
2018-04-25T09:56:27.302Z,472.50
2018-04-25T09:57:27.434Z,455.63
2018-04-25T09:58:27.433Z,438.75
2018-04-25T09:59:27.501Z,421.88
2018-04-25T10:00:27.569Z,416.25
2018-04-25T10:01:27.642Z,388.13
2018-04-25T10:02:27.716Z,438.75
2018-04-25T10:03:27.778Z,405.00
2018-04-25T10:04:27.838Z,433.13
2018-04-25T10:05:27.906Z,455.63
2018-04-25T10:06:27.974Z,495.00
2018-04-25T10:07:28.058Z,337.50
2018-04-25T10:08:28.114Z,523.13
2018-04-25T10:09:28.177Z,331.88
2018-04-25T10:10:28.254Z,326.25
2018-04-25T10:11:28.310Z,360.00
2018-04-25T10:12:28.394Z,343.13
2018-04-25T10:13:28.450Z,354.38
2018-04-25T10:14:28.511Z,405.00
2018-04-25T10:15:28.583Z,360.00
2018-04-25T10:16:28.663Z,343.13
2018-04-25T10:17:28.739Z,343.13
2018-04-25T10:18:28.803Z,354.38
2018-04-25T10:19:28.867Z,354.38
2018-04-25T10:20:28.923Z,315.00
2018-04-25T10:21:28.987Z,241.88
2018-04-25T10:22:29.068Z,157.50
2018-04-25T10:23:29.135Z,123.75
2018-04-25T10:24:29.195Z,163.13
2018-04-25T10:25:29.296Z,365.63
2018-04-25T10:26:29.327Z,343.13
2018-04-25T10:27:29.415Z,337.50
2018-04-25T10:28:29.471Z,286.88
2018-04-25T10:29:29.527Z,236.25
2018-04-25T10:30:29.607Z,174.38
2018-04-25T10:31:29.745Z,135.00
2018-04-25T10:32:29.739Z,106.88
2018-04-25T10:33:29.808Z,95.63
2018-04-25T10:34:29.872Z,90.00
2018-04-25T10:35:29.944Z,101.25
2018-04-25T10:36:30.009Z,135.00
2018-04-25T10:37:30.080Z,151.88
2018-04-25T10:38:30.144Z,196.88
2018-04-25T10:39:30.201Z,213.75
2018-04-25T10:40:30.276Z,219.38
2018-04-25T10:41:30.332Z,236.25
2018-04-25T10:42:30.416Z,247.50
2018-04-25T10:43:30.496Z,281.25
2018-04-25T10:44:30.532Z,281.25
2018-04-25T10:45:30.603Z,286.88
2018-04-25T10:46:30.672Z,298.13
2018-04-25T10:47:30.752Z,298.13
2018-04-25T10:48:30.828Z,331.88
2018-04-25T10:49:30.876Z,376.88
2018-04-25T10:50:30.928Z,388.13
2018-04-25T10:51:31.000Z,416.25
2018-04-25T10:52:31.081Z,472.50
2018-04-25T10:53:31.144Z,421.88
2018-04-25T10:54:31.201Z,371.25
2018-04-25T10:55:31.264Z,421.88
2018-04-25T10:56:31.340Z,455.63
2018-04-25T10:57:31.433Z,388.13
2018-04-25T10:58:31.481Z,309.38
2018-04-25T10:59:31.537Z,405.00
2018-04-25T11:00:31.613Z,354.38
2018-04-25T11:01:31.673Z,337.50
2018-04-25T11:02:31.830Z,421.88
2018-04-25T11:03:31.813Z,438.75
2018-04-25T11:04:31.880Z,461.25
2018-04-25T11:05:31.955Z,461.25
2018-04-25T11:06:32.008Z,450.00
2018-04-25T11:07:32.175Z,399.38
2018-04-25T11:08:32.146Z,376.88
2018-04-25T11:09:32.206Z,360.00
2018-04-25T11:10:32.281Z,360.00
2018-04-25T11:11:32.349Z,348.75
2018-04-25T11:12:32.425Z,320.63
2018-04-25T11:13:32.501Z,320.63
2018-04-25T11:14:32.549Z,315.00
2018-04-25T11:15:32.622Z,309.38
2018-04-25T11:16:32.701Z,320.63
2018-04-25T11:17:32.759Z,337.50
2018-04-25T11:18:32.824Z,309.38
2018-04-25T11:19:32.884Z,433.13
2018-04-25T11:20:32.952Z,309.38
2018-04-25T11:21:33.209Z,416.25
2018-04-25T11:22:33.292Z,393.75
2018-04-25T11:23:33.156Z,376.88
2018-04-25T11:24:33.220Z,281.25
2018-04-25T11:25:33.333Z,270.00
2018-04-25T11:26:33.413Z,326.25
2018-04-25T11:27:33.444Z,196.88
2018-04-25T11:28:33.509Z,213.75
2018-04-25T11:29:33.560Z,230.63
2018-04-25T11:30:33.629Z,253.13
2018-04-25T11:31:33.700Z,253.13
2018-04-25T11:32:33.776Z,236.25
2018-04-25T11:33:33.836Z,208.13
2018-04-25T11:34:33.897Z,163.13
2018-04-25T11:35:33.964Z,123.75
2018-04-25T11:36:34.033Z,101.25
2018-04-25T11:37:34.413Z,90.00
2018-04-25T11:38:34.172Z,84.38
2018-04-25T11:39:34.233Z,90.00
2018-04-25T11:40:34.300Z,112.50
2018-04-25T11:41:34.368Z,151.88
2018-04-25T11:42:34.445Z,180.00
2018-04-25T11:43:34.504Z,191.25
2018-04-25T11:44:34.569Z,191.25
2018-04-25T11:45:34.641Z,191.25
2018-04-25T11:46:34.701Z,196.88
2018-04-25T11:47:34.777Z,202.50
2018-04-25T11:48:34.860Z,208.13
2018-04-25T11:49:34.900Z,225.00
2018-04-25T11:50:34.975Z,331.88
2018-04-25T11:51:35.033Z,230.63
2018-04-25T11:52:35.133Z,309.38
2018-04-25T11:53:35.169Z,253.13
2018-04-25T11:54:35.239Z,258.75
2018-04-25T11:55:35.301Z,264.38
2018-04-25T11:56:35.369Z,331.88
2018-04-25T11:57:35.441Z,258.75
2018-04-25T11:58:35.509Z,371.25
2018-04-25T11:59:35.575Z,371.25
2018-04-25T12:00:35.631Z,343.13
2018-04-25T12:01:35.701Z,331.88
2018-04-25T12:02:35.781Z,286.88
2018-04-25T12:03:35.842Z,326.25
2018-04-25T12:04:35.898Z,286.88
2018-04-25T12:05:36.039Z,315.00
2018-04-25T12:06:36.037Z,365.63
2018-04-25T12:07:36.118Z,388.13
2018-04-25T12:08:36.174Z,270.00
2018-04-25T12:09:36.234Z,253.13
2018-04-25T12:10:36.303Z,219.38
2018-04-25T12:11:36.370Z,196.88
2018-04-25T12:12:36.442Z,191.25
2018-04-25T12:13:36.510Z,202.50
2018-04-25T12:14:36.570Z,208.13
2018-04-25T12:15:36.646Z,191.25
2018-04-25T12:16:36.713Z,174.38
2018-04-25T12:17:36.782Z,180.00
2018-04-25T12:18:36.905Z,185.63
2018-04-25T12:19:36.906Z,196.88
2018-04-25T12:20:36.970Z,213.75
2018-04-25T12:21:37.038Z,270.00
2018-04-25T12:22:37.118Z,270.00
2018-04-25T12:23:37.174Z,348.75
2018-04-25T12:24:37.238Z,219.38
2018-04-25T12:25:37.323Z,174.38
2018-04-25T12:26:37.370Z,129.38
2018-04-25T12:27:37.442Z,129.38
2018-04-25T12:28:37.519Z,168.75
2018-04-25T12:29:37.617Z,219.38
2018-04-25T12:30:37.639Z,258.75
2018-04-25T12:31:37.708Z,275.63
2018-04-25T12:32:37.791Z,348.75
2018-04-25T12:33:37.847Z,281.25
2018-04-25T12:34:37.907Z,275.63
2018-04-25T12:35:37.971Z,270.00
2018-04-25T12:36:38.039Z,264.38
2018-04-25T12:37:38.415Z,281.25
2018-04-25T12:38:38.171Z,416.25
2018-04-25T12:39:38.239Z,286.88
2018-04-25T12:40:38.311Z,433.13
2018-04-25T12:41:38.439Z,315.00
2018-04-25T12:42:38.443Z,309.38
2018-04-25T12:43:38.523Z,286.88
2018-04-25T12:44:38.571Z,281.25
2018-04-25T12:45:38.643Z,371.25
2018-04-25T12:46:38.703Z,309.38
2018-04-25T12:47:38.779Z,298.13
2018-04-25T12:48:38.847Z,326.25
2018-04-25T12:49:38.911Z,393.75
2018-04-25T12:50:38.972Z,382.50
2018-04-25T12:51:39.041Z,360.00